createdAt,value
2018-07-15T00:49:23.373Z,7.43
2018-07-15T00:51:52.565Z,7.37
2018-07-15T00:54:21.686Z,8.17
2018-07-15T00:57:24.307Z,7.23
2018-07-15T01:00:57.955Z,6.33
2018-07-15T01:10:39.738Z,6.80
2018-07-15T01:13:09.668Z,6.83
2018-07-15T01:15:43.581Z,6.83
2018-07-15T01:18:13.539Z,7.07
2018-07-15T01:20:42.615Z,6.87
2018-07-15T01:23:11.947Z,5.87
2018-07-15T01:25:41.132Z,8.10
2018-07-15T01:28:10.569Z,6.23
2018-07-15T01:30:39.609Z,6.50
2018-07-15T01:33:08.824Z,6.30
2018-07-15T01:35:37.904Z,7.30
2018-07-15T01:38:07.201Z,6.90
2018-07-15T01:40:37.514Z,5.97
2018-07-15T01:43:06.924Z,6.47
2018-07-15T01:45:36.094Z,7.90
2018-07-15T01:48:05.185Z,6.53
2018-07-15T01:50:34.314Z,6.33
2018-07-15T01:53:03.306Z,7.30
2018-07-15T01:55:33.315Z,6.33
2018-07-15T01:58:13.105Z,7.60
2018-07-15T02:00:44.388Z,5.80
2018-07-15T02:03:14.637Z,6.77
2018-07-15T02:05:43.729Z,7.30
2018-07-15T02:08:12.903Z,7.07
2018-07-15T02:10:42.148Z,6.57
2018-07-15T02:13:11.359Z,7.47
2018-07-15T02:15:40.491Z,6.93
2018-07-15T02:18:14.250Z,7.37
2018-07-15T02:20:43.961Z,7.40
2018-07-15T02:23:12.991Z,7.00
2018-07-15T02:25:42.018Z,7.27
2018-07-15T02:28:11.009Z,8.57
2018-07-15T02:30:40.015Z,8.07
2018-07-15T02:33:09.049Z,7.50
2018-07-15T02:35:38.411Z,7.87
2018-07-15T02:38:22.250Z,8.63
2018-07-15T02:41:02.447Z,8.70
2018-07-15T02:43:31.944Z,7.47
2018-07-15T02:46:03.281Z,7.43
2018-07-15T02:48:33.255Z,7.93
2018-07-15T02:51:05.109Z,7.27
2018-07-15T02:53:40.517Z,8.10
2018-07-15T02:56:10.361Z,11.50
2018-07-15T02:58:40.730Z,8.00
2018-07-15T03:01:11.185Z,7.23
2018-07-15T03:03:43.881Z,7.50
2018-07-15T03:06:13.492Z,6.97
2018-07-15T03:08:43.177Z,7.30
2018-07-15T03:11:13.772Z,7.97
2018-07-15T03:13:43.461Z,7.30
2018-07-15T03:31:07.574Z,10.10
2018-07-15T03:33:41.654Z,8.67
2018-07-15T03:36:13.434Z,8.90
2018-07-15T03:38:44.207Z,9.13
2018-07-15T03:41:15.141Z,8.40
2018-07-15T03:43:44.197Z,8.23
2018-07-15T03:46:13.190Z,9.87
2018-07-15T03:48:42.197Z,9.47
2018-07-15T03:51:11.271Z,9.30
2018-07-15T03:53:40.312Z,9.10
2018-07-15T03:56:09.338Z,10.57
2018-07-15T03:58:38.366Z,9.60
2018-07-15T04:01:07.584Z,9.50
2018-07-15T04:03:37.457Z,10.27
2018-07-15T04:06:06.739Z,11.07
2018-07-15T04:08:36.305Z,9.97
2018-07-15T04:11:05.512Z,9.73
2018-07-15T04:13:57.215Z,10.73
2018-07-15T04:16:38.643Z,10.40
2018-07-15T04:19:07.997Z,12.73
2018-07-15T04:21:38.502Z,10.40
2018-07-15T04:24:09.196Z,10.10
2018-07-15T04:26:39.019Z,10.40
2018-07-15T04:29:10.035Z,10.73
2018-07-15T05:00:26.795Z,10.30
2018-07-15T05:02:55.761Z,9.57
2018-07-15T05:05:24.758Z,10.37
2018-07-15T05:07:53.767Z,11.43
2018-07-15T05:10:22.721Z,9.70
2018-07-15T05:12:52.785Z,9.70
2018-07-15T05:15:21.721Z,9.87
2018-07-15T05:17:50.693Z,11.33
2018-07-15T05:20:19.662Z,9.00
2018-07-15T05:22:48.599Z,8.63
2018-07-15T05:25:17.580Z,9.40
2018-07-15T05:27:46.548Z,10.83
2018-07-15T05:30:15.487Z,9.43
2018-07-15T05:32:44.426Z,10.37
2018-07-15T05:35:13.366Z,9.57
2018-07-15T05:37:42.312Z,8.33
2018-07-15T05:40:11.259Z,9.17
2018-07-15T05:42:40.219Z,8.57
2018-07-15T05:45:09.192Z,8.83
2018-07-15T05:47:38.352Z,9.17
2018-07-15T05:50:07.320Z,8.47
2018-07-15T05:52:36.291Z,8.80
2018-07-15T05:55:05.512Z,8.57
2018-07-15T05:57:34.525Z,8.57
2018-07-15T06:00:03.554Z,9.30
2018-07-15T06:02:32.526Z,7.27
2018-07-15T06:05:01.632Z,8.77
2018-07-15T06:07:30.592Z,8.90
2018-07-15T06:09:59.506Z,7.70
2018-07-15T06:12:28.473Z,7.50
2018-07-15T06:14:57.379Z,8.07
2018-07-15T06:17:26.334Z,6.77
2018-07-15T06:19:55.301Z,7.20
2018-07-15T06:22:24.269Z,6.67
2018-07-15T06:24:53.276Z,5.90
2018-07-15T06:27:22.221Z,5.80
2018-07-15T06:29:51.158Z,7.03
2018-07-15T06:32:20.161Z,6.57
2018-07-15T06:34:49.150Z,6.70
2018-07-15T06:37:18.136Z,6.17
2018-07-15T06:39:47.290Z,6.27
2018-07-15T06:42:16.235Z,6.17
2018-07-15T06:44:45.193Z,5.40
2018-07-15T06:47:14.132Z,6.30
2018-07-15T06:49:43.086Z,5.87
2018-07-15T06:52:12.047Z,6.17
2018-07-15T06:54:40.978Z,6.97
2018-07-15T06:57:09.934Z,5.77
2018-07-15T06:59:38.870Z,6.63
2018-07-15T07:02:17.001Z,5.47
2018-07-15T07:04:49.606Z,5.78
2018-07-15T07:10:16.630Z,5.50
2018-07-15T07:12:45.755Z,6.35
2018-07-15T07:15:14.721Z,5.28
2018-07-15T07:17:43.666Z,4.90
2018-07-15T07:20:12.654Z,6.37
2018-07-15T07:22:41.599Z,5.47
2018-07-15T07:25:10.582Z,7.03
2018-07-15T07:27:39.576Z,5.78
2018-07-15T07:30:08.537Z,4.80
2018-07-15T07:32:37.904Z,5.90
2018-07-15T07:35:07.190Z,4.70
2018-07-15T07:37:36.121Z,4.53
2018-07-15T07:40:05.218Z,5.47
2018-07-15T07:42:34.159Z,4.85
2018-07-15T07:45:03.378Z,6.05
2018-07-15T07:47:32.508Z,4.85
2018-07-15T07:50:01.445Z,6.20
2018-07-15T07:52:30.418Z,4.80
2018-07-15T07:54:59.396Z,5.42
2018-07-15T07:57:28.841Z,5.55
2018-07-15T07:59:57.775Z,4.90
2018-07-15T08:02:26.705Z,4.70
2018-07-15T08:04:55.623Z,6.20
2018-07-15T08:07:24.589Z,5.08
2018-07-15T08:09:53.524Z,6.33
2018-07-15T08:12:22.449Z,4.67
2018-07-15T08:14:51.458Z,4.78
2018-07-15T08:17:20.384Z,4.78
2018-07-15T08:19:49.542Z,4.60
2018-07-15T08:22:18.575Z,5.47
2018-07-15T08:24:47.581Z,5.60
2018-07-15T08:27:16.525Z,5.28
2018-07-15T08:29:56.793Z,5.33
2018-07-15T08:32:26.582Z,7.10
2018-07-15T08:34:55.809Z,5.47
2018-07-15T08:37:24.701Z,7.20
2018-07-15T08:39:53.634Z,5.70
2018-07-15T08:42:22.657Z,5.87
2018-07-15T08:44:51.597Z,4.60
2018-07-15T08:47:20.528Z,5.45
2018-07-15T08:49:49.468Z,4.58
2018-07-15T08:52:18.427Z,4.40
2018-07-15T08:54:47.405Z,4.87
2018-07-15T08:57:16.367Z,4.92
2018-07-15T08:59:45.483Z,6.00
2018-07-15T09:02:14.441Z,5.08
2018-07-15T09:04:43.371Z,4.35
2018-07-15T09:07:12.350Z,6.58
2018-07-15T09:09:41.297Z,4.83
2018-07-15T09:12:10.233Z,4.35
2018-07-15T09:14:39.194Z,4.47
2018-07-15T09:17:08.216Z,4.65
2018-07-15T09:19:37.172Z,4.83
2018-07-15T09:22:06.170Z,5.20
2018-07-15T09:24:35.335Z,4.53
2018-07-15T09:27:04.868Z,4.65
2018-07-15T09:29:34.065Z,6.45
2018-07-15T09:32:02.977Z,4.80
2018-07-15T09:34:31.908Z,4.75
2018-07-15T09:37:00.837Z,5.20
2018-07-15T09:39:29.773Z,4.67
2018-07-15T09:41:58.688Z,6.42
2018-07-15T09:44:27.626Z,5.22
2018-07-15T09:46:56.585Z,5.70
2018-07-15T09:49:25.530Z,5.35
2018-07-15T09:51:54.487Z,4.83
2018-07-15T09:54:23.404Z,5.65
2018-07-15T09:56:52.513Z,6.15
2018-07-15T09:59:21.447Z,6.50
2018-07-15T10:01:50.463Z,6.30
2018-07-15T10:04:19.634Z,6.47
2018-07-15T10:06:48.573Z,5.00
2018-07-15T10:09:18.375Z,5.83
2018-07-15T10:11:47.376Z,7.15
2018-07-15T10:14:16.421Z,6.35
2018-07-15T10:16:45.357Z,6.35
2018-07-15T10:19:14.277Z,5.92
2018-07-15T10:21:43.242Z,6.05
2018-07-15T10:24:12.186Z,7.05
2018-07-15T10:26:41.336Z,6.15
2018-07-15T10:29:10.154Z,8.15
2018-07-15T10:31:39.085Z,7.30
2018-07-15T10:34:08.161Z,7.20
2018-07-15T10:36:37.094Z,6.17
2018-07-15T10:39:06.450Z,5.35
2018-07-15T10:41:35.315Z,5.67
2018-07-15T10:44:04.220Z,6.00
2018-07-15T10:46:33.173Z,7.87
2018-07-15T10:49:02.182Z,5.25
2018-07-15T10:51:31.511Z,6.58
2018-07-15T10:54:00.433Z,6.95
2018-07-15T10:56:29.340Z,5.58
2018-07-15T10:58:58.286Z,6.00
2018-07-15T11:01:27.295Z,5.92
2018-07-15T11:03:56.226Z,5.87
2018-07-15T11:06:25.214Z,6.50
2018-07-15T11:08:54.274Z,6.28
2018-07-15T11:11:23.190Z,6.12
2018-07-15T11:13:52.109Z,7.42
2018-07-15T11:16:21.101Z,6.28
2018-07-15T11:18:50.046Z,5.87
2018-07-15T11:21:18.964Z,6.62
2018-07-15T11:23:47.915Z,6.40
2018-07-15T11:26:16.853Z,5.95
2018-07-15T11:28:45.974Z,5.20
2018-07-15T11:31:15.397Z,5.33
2018-07-15T11:33:44.223Z,5.22
2018-07-15T11:36:13.181Z,5.92
2018-07-15T11:38:42.088Z,5.72
2018-07-15T11:41:11.137Z,6.45
2018-07-15T11:43:40.115Z,5.55
2018-07-15T11:46:09.033Z,5.87
2018-07-15T11:48:38.004Z,6.12
2018-07-15T11:51:07.278Z,5.05
2018-07-15T11:53:36.234Z,5.28
2018-07-15T11:56:05.231Z,6.30
2018-07-15T11:58:34.150Z,5.03
2018-07-15T12:01:03.180Z,4.70
2018-07-15T12:03:32.097Z,6.08
2018-07-15T12:06:01.116Z,4.85
2018-07-15T12:08:30.044Z,5.08
2018-07-15T12:10:59.203Z,5.70
2018-07-15T12:13:28.244Z,4.45
2018-07-15T12:15:57.198Z,4.75
2018-07-15T12:18:26.226Z,5.62
2018-07-15T12:20:55.206Z,4.95
2018-07-15T12:23:24.270Z,4.37
2018-07-15T12:25:53.227Z,4.47
2018-07-15T12:28:22.306Z,4.05
2018-07-15T12:30:51.204Z,4.80
2018-07-15T12:33:20.148Z,4.47
2018-07-15T12:35:49.299Z,4.47
2018-07-15T12:38:18.236Z,4.60
2018-07-15T12:40:47.281Z,5.33
2018-07-15T12:43:16.181Z,5.25
2018-07-15T12:45:45.101Z,4.47
2018-07-15T12:48:14.045Z,5.37
2018-07-15T12:50:42.973Z,4.47
2018-07-15T12:53:11.900Z,4.70
2018-07-15T12:55:40.871Z,4.37
2018-07-15T12:58:09.817Z,4.62
2018-07-15T13:00:38.908Z,4.42
2018-07-15T13:03:08.018Z,4.35
2018-07-15T13:05:36.964Z,4.90
2018-07-15T13:08:05.961Z,5.08
2018-07-15T13:10:34.972Z,5.37
2018-07-15T13:13:03.905Z,4.35
2018-07-15T13:15:32.847Z,4.90
2018-07-15T13:18:01.753Z,5.45
2018-07-15T13:20:30.677Z,4.15
2018-07-15T13:22:59.623Z,4.42
2018-07-15T13:25:28.585Z,4.58
2018-07-15T13:27:57.563Z,5.75
2018-07-15T13:30:26.516Z,5.80
2018-07-15T13:32:55.487Z,4.92
2018-07-15T13:35:24.425Z,6.53
2018-07-15T13:37:53.377Z,5.25
2018-07-15T13:40:22.523Z,4.80
2018-07-15T13:42:51.641Z,5.62
2018-07-15T13:45:20.726Z,4.42
2018-07-15T13:47:49.703Z,5.20
2018-07-15T13:50:18.619Z,4.87
2018-07-15T13:52:47.557Z,6.05
2018-07-15T13:55:16.501Z,5.00
2018-07-15T13:57:45.436Z,4.60
2018-07-15T14:00:14.467Z,4.90
2018-07-15T14:02:43.371Z,5.85
2018-07-15T14:05:12.296Z,6.22
2018-07-15T14:07:41.245Z,5.50
2018-07-15T14:10:10.224Z,5.65
2018-07-15T14:12:39.161Z,5.22
2018-07-15T14:15:08.156Z,5.05
2018-07-15T14:17:37.089Z,5.37
2018-07-15T14:20:06.427Z,5.47
2018-07-15T14:22:35.331Z,5.67
2018-07-15T14:25:04.267Z,5.22
2018-07-15T14:27:33.261Z,5.05
2018-07-15T14:30:02.233Z,5.47
2018-07-15T14:32:31.441Z,5.78
2018-07-15T14:35:02.761Z,6.95
2018-07-15T14:37:34.155Z,5.50
2018-07-15T14:40:03.096Z,5.15
2018-07-15T14:42:32.041Z,4.90
2018-07-15T14:45:00.989Z,5.15
2018-07-15T14:47:29.952Z,13.30
2018-07-15T14:49:58.890Z,5.17
2018-07-15T14:52:27.815Z,6.10
2018-07-15T14:54:56.793Z,7.05
2018-07-15T14:57:25.768Z,6.62
2018-07-15T14:59:54.676Z,5.47
2018-07-15T15:02:23.621Z,5.72
2018-07-15T15:04:52.520Z,6.15
2018-07-15T15:07:21.506Z,5.90
2018-07-15T15:09:50.510Z,5.72
2018-07-15T15:12:19.432Z,5.10
2018-07-15T15:14:48.344Z,5.53
2018-07-15T15:17:17.300Z,4.60
2018-07-15T15:19:46.267Z,5.15
2018-07-15T15:22:15.160Z,5.67
2018-07-15T15:24:44.091Z,5.37
2018-07-15T15:27:13.080Z,4.72
2018-07-15T15:29:42.002Z,4.90
2018-07-15T15:32:10.892Z,9.28
2018-07-15T15:34:39.811Z,4.80
2018-07-15T15:37:08.895Z,4.85
2018-07-15T15:39:37.870Z,5.08
2018-07-15T15:42:06.872Z,7.28
2018-07-15T15:44:35.891Z,4.67
2018-07-15T15:47:04.821Z,5.40
2018-07-15T15:49:33.901Z,6.78
2018-07-15T15:52:02.862Z,4.85
2018-07-15T15:54:31.790Z,5.70
2018-07-15T15:57:00.741Z,4.37
2018-07-15T15:59:29.679Z,5.03
2018-07-15T16:02:00.398Z,4.40
2018-07-15T16:04:29.544Z,5.22
2018-07-15T16:06:58.471Z,4.67
2018-07-15T16:09:27.554Z,4.28
2018-07-15T16:11:56.653Z,4.50
2018-07-15T16:14:25.623Z,4.97
2018-07-15T16:16:54.640Z,4.65
2018-07-15T16:19:23.602Z,5.28
2018-07-15T16:21:52.703Z,4.83
2018-07-15T16:24:21.768Z,5.90
2018-07-15T16:26:50.665Z,5.25
2018-07-15T16:29:19.625Z,5.20
2018-07-15T16:31:48.542Z,4.67
2018-07-15T16:34:17.582Z,5.30
2018-07-15T16:36:46.534Z,4.57
2018-07-15T16:39:15.495Z,4.57
2018-07-15T16:41:44.493Z,4.47
2018-07-15T16:44:13.452Z,6.23
2018-07-15T16:46:42.501Z,4.47
2018-07-15T16:49:11.575Z,4.10
2018-07-15T16:51:40.495Z,4.47
2018-07-15T16:54:09.594Z,4.00
2018-07-15T16:56:38.637Z,4.77
2018-07-15T16:59:07.574Z,4.23
2018-07-15T17:01:37.112Z,4.40
2018-07-15T17:04:06.038Z,4.87
2018-07-15T17:06:34.990Z,3.93
2018-07-15T17:09:04.917Z,4.77
2018-07-15T17:11:34.218Z,6.97
2018-07-15T17:14:03.269Z,8.40
2018-07-15T17:16:32.229Z,5.43
2018-07-15T17:19:01.192Z,5.37
2018-07-15T17:21:30.122Z,4.50
2018-07-15T17:23:59.085Z,4.40
2018-07-15T17:26:28.083Z,4.13
2018-07-15T17:28:57.028Z,2.83
2018-07-15T17:31:26.296Z,3.57
2018-07-15T17:33:55.380Z,3.77
2018-07-15T17:36:24.504Z,3.17
2018-07-15T17:38:53.472Z,3.40
2018-07-15T17:41:22.446Z,5.00
2018-07-15T17:43:51.360Z,3.80
2018-07-15T17:46:20.323Z,4.27
2018-07-15T17:48:49.299Z,3.00
2018-07-15T17:51:18.278Z,3.50
2018-07-15T17:53:47.199Z,3.40
2018-07-15T17:56:16.236Z,3.73
2018-07-15T17:58:45.181Z,3.80
2018-07-15T18:01:14.332Z,6.17
2018-07-15T18:03:43.253Z,4.00
2018-07-15T18:06:12.267Z,2.97
2018-07-15T18:08:41.204Z,3.03
2018-07-15T18:11:10.213Z,3.43
2018-07-15T18:13:39.331Z,3.07
2018-07-15T18:16:08.419Z,3.40
2018-07-15T18:18:37.767Z,3.23
2018-07-15T18:21:06.792Z,3.03
2018-07-15T18:23:35.757Z,3.27
2018-07-15T18:26:04.758Z,3.20
2018-07-15T18:28:33.704Z,3.47
2018-07-15T18:31:02.673Z,2.97
2018-07-15T18:33:31.732Z,4.50
2018-07-15T18:36:00.561Z,3.70
2018-07-15T18:38:29.502Z,3.57
2018-07-15T18:40:58.613Z,3.60
2018-07-15T18:43:27.598Z,2.77
2018-07-15T18:45:56.549Z,3.30
2018-07-15T18:48:25.525Z,3.20
2018-07-15T18:50:54.666Z,4.67
2018-07-15T18:53:23.636Z,3.10
2018-07-15T18:55:52.561Z,3.20
2018-07-15T18:58:21.499Z,2.93
2018-07-15T19:00:50.547Z,2.93
2018-07-15T19:03:19.445Z,3.30
2018-07-15T19:05:48.456Z,2.93
2018-07-15T19:08:17.428Z,3.17
2018-07-15T19:10:46.403Z,3.93
2018-07-15T19:13:15.387Z,3.30
2018-07-15T19:15:44.340Z,3.87
2018-07-15T19:18:13.704Z,6.47
2018-07-15T19:20:42.617Z,2.93
2018-07-15T19:23:11.577Z,3.03
2018-07-15T19:25:40.496Z,5.87
2018-07-15T19:28:09.411Z,3.97
2018-07-15T19:30:38.341Z,2.87
2018-07-15T19:33:07.397Z,2.67
2018-07-15T19:35:36.413Z,3.17
2018-07-15T19:38:05.369Z,2.50
2018-07-15T19:40:34.342Z,2.93
2018-07-15T19:43:03.252Z,3.63
2018-07-15T19:45:32.347Z,3.33
2018-07-15T19:48:01.356Z,4.73
2018-07-15T19:50:30.783Z,3.63
2018-07-15T19:52:59.774Z,6.23
2018-07-15T19:55:28.717Z,4.00
2018-07-15T19:57:57.651Z,2.70
2018-07-15T20:00:26.585Z,2.93
2018-07-15T20:02:55.488Z,4.40
2018-07-15T20:05:24.541Z,2.90
2018-07-15T20:07:53.496Z,3.27
2018-07-15T20:10:22.450Z,3.20
2018-07-15T20:12:51.404Z,3.40
2018-07-15T20:15:20.316Z,2.77
2018-07-15T20:17:49.270Z,3.33
2018-07-15T20:20:18.213Z,2.97
2018-07-15T20:22:47.129Z,3.10
2018-07-15T20:25:16.116Z,4.13
2018-07-15T20:27:45.039Z,3.10
2018-07-15T20:30:13.980Z,3.40
2018-07-15T20:32:42.996Z,3.23
2018-07-15T20:35:11.939Z,2.73
2018-07-15T20:37:40.982Z,2.73
2018-07-15T20:40:09.948Z,2.63
2018-07-15T20:42:38.896Z,3.07
2018-07-15T20:45:07.866Z,2.73
2018-07-15T20:47:36.827Z,2.97
2018-07-15T20:50:05.748Z,5.03
2018-07-15T20:52:34.868Z,4.10
2018-07-15T20:55:03.822Z,2.43
2018-07-15T20:57:32.761Z,2.60
2018-07-15T21:00:01.717Z,2.93
2018-07-15T21:02:30.678Z,2.80
2018-07-15T21:04:59.656Z,4.13
2018-07-15T21:07:28.581Z,3.47
2018-07-15T21:09:57.532Z,2.40
2018-07-15T21:12:26.450Z,5.20
2018-07-15T21:14:55.454Z,3.07
2018-07-15T21:17:24.492Z,4.07
2018-07-15T21:19:53.442Z,2.63
2018-07-15T21:22:22.366Z,2.80
2018-07-15T21:24:51.291Z,3.30
2018-07-15T21:27:20.221Z,2.90
2018-07-15T21:29:49.167Z,4.13
2018-07-15T21:32:18.206Z,2.90
2018-07-15T21:34:47.112Z,2.63
2018-07-15T21:37:16.076Z,2.43
2018-07-15T21:39:45.663Z,2.60
2018-07-15T21:42:14.612Z,2.97
2018-07-15T21:44:43.551Z,2.80
2018-07-15T21:47:12.824Z,3.17
2018-07-15T21:49:42.097Z,3.93
2018-07-15T21:52:11.058Z,2.93
2018-07-15T21:54:39.988Z,3.53
2018-07-15T21:57:08.960Z,4.70
2018-07-15T21:59:37.945Z,3.23
2018-07-15T22:02:06.972Z,3.57
2018-07-15T22:04:35.920Z,3.70
2018-07-15T22:07:16.529Z,3.43
2018-07-15T22:09:57.880Z,3.33
2018-07-15T22:12:26.982Z,3.03
2018-07-15T22:14:55.904Z,3.67
2018-07-15T22:17:25.274Z,3.10
2018-07-15T22:19:54.213Z,3.40
2018-07-15T22:22:23.161Z,3.17
2018-07-15T22:24:52.112Z,3.03
2018-07-15T22:27:21.051Z,3.13
2018-07-15T22:29:49.986Z,3.50
2018-07-15T22:32:18.916Z,3.10
2018-07-15T22:34:47.839Z,3.23
2018-07-15T22:37:16.802Z,2.60
2018-07-15T22:39:46.209Z,3.30
2018-07-15T22:42:15.160Z,3.03
2018-07-15T22:44:44.069Z,3.30
2018-07-15T22:47:13.029Z,4.77
2018-07-15T22:49:41.968Z,3.10
2018-07-15T22:52:10.974Z,4.43
2018-07-15T22:54:39.994Z,3.53
2018-07-15T22:57:08.958Z,4.07
2018-07-15T22:59:37.917Z,3.53
2018-07-15T23:02:06.877Z,3.20
2018-07-15T23:05:47.479Z,3.10
2018-07-15T23:08:16.393Z,2.90
2018-07-15T23:10:45.346Z,3.27
2018-07-15T23:13:14.633Z,3.30
2018-07-15T23:15:44.300Z,4.00
2018-07-15T23:18:13.229Z,3.63
2018-07-15T23:20:42.833Z,3.10
2018-07-15T23:23:12.240Z,2.97
2018-07-15T23:25:41.368Z,2.93
2018-07-15T23:28:12.255Z,3.60
2018-07-15T23:30:41.776Z,3.20
2018-07-15T23:33:11.180Z,3.73
2018-07-15T23:35:40.072Z,3.43
2018-07-15T23:38:09.018Z,3.30
2018-07-15T23:40:37.956Z,3.60
2018-07-15T23:43:06.915Z,3.90
2018-07-15T23:45:36.547Z,3.73
2018-07-15T23:48:05.644Z,3.87
2018-07-15T23:50:34.625Z,3.73
2018-07-15T23:53:03.550Z,4.70
2018-07-15T23:55:32.476Z,4.20
2018-07-15T23:58:01.420Z,3.30
